sensor_id;sensor_type;location;lat;lon;timestamp;P1;P2;P0
31330;PMS5003;34067;39.548;-76.088;2022-10-17T00:00:19;10;9;
31330;PMS5003;34067;39.548;-76.088;2022-10-17T00:02:47;9;9;
31330;PMS5003;34067;39.548;-76.088;2022-10-17T00:05:15;12;10;
31330;PMS5003;34067;39.548;-76.088;2022-10-17T00:07:43;13;11;
31330;PMS5003;34067;39.548;-76.088;2022-10-17T00:10:11;9;9;
31330;PMS5003;34067;39.548;-76.088;2022-10-17T00:12:39;11;11;
31330;PMS5003;34067;39.548;-76.088;2022-10-17T00:15:07;18;16;
31330;PMS5003;34067;39.548;-76.088;2022-10-17T00:17:36;13;13;
31330;PMS5003;34067;39.548;-76.088;2022-10-17T00:20:05;14;13;
31330;PMS5003;34067;39.548;-76.088;2022-10-17T00:22:33;12;11;
31330;PMS5003;34067;39.548;-76.088;2022-10-17T00:25:02;8;7;
31330;PMS5003;34067;39.548;-76.088;2022-10-17T00:27:33;11;10;
31330;PMS5003;34067;39.548;-76.088;2022-10-17T00:30:01;11;10;
31330;PMS5003;34067;39.548;-76.088;2022-10-17T00:32:29;11;10;
31330;PMS5003;34067;39.548;-76.088;2022-10-17T00:34:57;11;10;
31330;PMS5003;34067;39.548;-76.088;2022-10-17T00:37:25;12;12;
31330;PMS5003;34067;39.548;-76.088;2022-10-17T00:39:54;9;9;
31330;PMS5003;34067;39.548;-76.088;2022-10-17T00:42:22;9;8;
31330;PMS5003;34067;39.548;-76.088;2022-10-17T00:44:59;11;11;
31330;PMS5003;34067;39.548;-76.088;2022-10-17T00:47:32;13;12;
31330;PMS5003;34067;39.548;-76.088;2022-10-17T00:50:02;14;13;
31330;PMS5003;34067;39.548;-76.088;2022-10-17T00:52:32;13;13;
31330;PMS5003;34067;39.548;-76.088;2022-10-17T00:55:03;13;12;
31330;PMS5003;34067;39.548;-76.088;2022-10-17T00:57:37;16;14;
31330;PMS5003;34067;39.548;-76.088;2022-10-17T01:00:07;12;11;
31330;PMS5003;34067;39.548;-76.088;2022-10-17T01:02:37;13;13;
31330;PMS5003;34067;39.548;-76.088;2022-10-17T01:05:05;13;12;
31330;PMS5003;34067;39.548;-76.088;2022-10-17T01:07:34;19;17;
31330;PMS5003;34067;39.548;-76.088;2022-10-17T01:10:05;15;15;
31330;PMS5003;34067;39.548;-76.088;2022-10-17T01:12:39;13;12;
31330;PMS5003;34067;39.548;-76.088;2022-10-17T01:15:16;16;14;
31330;PMS5003;34067;39.548;-76.088;2022-10-17T01:17:57;11;10;
31330;PMS5003;34067;39.548;-76.088;2022-10-17T01:20:42;10;10;
31330;PMS5003;34067;39.548;-76.088;2022-10-17T01:23:29;9;9;
31330;PMS5003;34067;39.548;-76.088;2022-10-17T01:26:12;8;8;
31330;PMS5003;34067;39.548;-76.088;2022-10-17T01:28:55;11;10;
31330;PMS5003;34067;39.548;-76.088;2022-10-17T01:31:38;8;8;
31330;PMS5003;34067;39.548;-76.088;2022-10-17T01:34:13;10;9;
31330;PMS5003;34067;39.548;-76.088;2022-10-17T01:36:47;8;8;
31330;PMS5003;34067;39.548;-76.088;2022-10-17T01:39:21;8;7;
31330;PMS5003;34067;39.548;-76.088;2022-10-17T01:41:58;7;7;
31330;PMS5003;34067;39.548;-76.088;2022-10-17T01:44:34;7;5;
31330;PMS5003;34067;39.548;-76.088;2022-10-17T01:47:09;6;6;
31330;PMS5003;34067;39.548;-76.088;2022-10-17T01:49:40;7;7;
31330;PMS5003;34067;39.548;-76.088;2022-10-17T01:52:11;8;7;
31330;PMS5003;34067;39.548;-76.088;2022-10-17T01:54:43;9;9;
31330;PMS5003;34067;39.548;-76.088;2022-10-17T01:57:14;7;7;
31330;PMS5003;34067;39.548;-76.088;2022-10-17T01:59:48;8;7;
31330;PMS5003;34067;39.548;-76.088;2022-10-17T02:02:21;9;8;
31330;PMS5003;34067;39.548;-76.088;2022-10-17T02:04:51;10;10;
31330;PMS5003;34067;39.548;-76.088;2022-10-17T02:07:21;9;9;
31330;PMS5003;34067;39.548;-76.088;2022-10-17T02:09:50;11;9;
31330;PMS5003;34067;39.548;-76.088;2022-10-17T02:12:23;10;9;
31330;PMS5003;34067;39.548;-76.088;2022-10-17T02:15:06;10;10;
31330;PMS5003;34067;39.548;-76.088;2022-10-17T02:17:47;9;9;
31330;PMS5003;34067;39.548;-76.088;2022-10-17T02:20:24;9;8;
31330;PMS5003;34067;39.548;-76.088;2022-10-17T02:22:57;9;9;
31330;PMS5003;34067;39.548;-76.088;2022-10-17T02:25:35;11;11;
31330;PMS5003;34067;39.548;-76.088;2022-10-17T02:28:13;9;8;
31330;PMS5003;34067;39.548;-76.088;2022-10-17T02:30:49;9;9;
31330;PMS5003;34067;39.548;-76.088;2022-10-17T02:33:21;8;8;
31330;PMS5003;34067;39.548;-76.088;2022-10-17T02:35:55;8;8;
31330;PMS5003;34067;39.548;-76.088;2022-10-17T02:38:28;8;8;
31330;PMS5003;34067;39.548;-76.088;2022-10-17T02:40:58;9;9;
31330;PMS5003;34067;39.548;-76.088;2022-10-17T02:43:27;9;9;
31330;PMS5003;34067;39.548;-76.088;2022-10-17T02:45:55;11;10;
31330;PMS5003;34067;39.548;-76.088;2022-10-17T02:48:24;12;12;
31330;PMS5003;34067;39.548;-76.088;2022-10-17T02:51:02;10;10;
31330;PMS5003;34067;39.548;-76.088;2022-10-17T02:53:37;9;9;
31330;PMS5003;34067;39.548;-76.088;2022-10-17T02:56:13;8;7;
31330;PMS5003;34067;39.548;-76.088;2022-10-17T02:58:44;13;13;
31330;PMS5003;34067;39.548;-76.088;2022-10-17T03:01:15;8;8;
31330;PMS5003;34067;39.548;-76.088;2022-10-17T03:03:44;9;9;
31330;PMS5003;34067;39.548;-76.088;2022-10-17T03:06:12;12;11;
31330;PMS5003;34067;39.548;-76.088;2022-10-17T03:08:41;14;13;
31330;PMS5003;34067;39.548;-76.088;2022-10-17T03:11:09;8;8;
31330;PMS5003;34067;39.548;-76.088;2022-10-17T03:13:42;8;7;
31330;PMS5003;34067;39.548;-76.088;2022-10-17T03:16:10;8;8;
31330;PMS5003;34067;39.548;-76.088;2022-10-17T03:18:38;6;6;
31330;PMS5003;34067;39.548;-76.088;2022-10-17T03:21:06;7;6;
31330;PMS5003;34067;39.548;-76.088;2022-10-17T03:23:34;6;6;
31330;PMS5003;34067;39.548;-76.088;2022-10-17T03:26:02;7;6;
31330;PMS5003;34067;39.548;-76.088;2022-10-17T03:28:30;9;7;
31330;PMS5003;34067;39.548;-76.088;2022-10-17T03:30:58;6;6;
31330;PMS5003;34067;39.548;-76.088;2022-10-17T03:33:32;8;7;
31330;PMS5003;34067;39.548;-76.088;2022-10-17T03:36:04;8;8;
31330;PMS5003;34067;39.548;-76.088;2022-10-17T03:38:34;7;7;
31330;PMS5003;34067;39.548;-76.088;2022-10-17T03:41:02;7;7;
31330;PMS5003;34067;39.548;-76.088;2022-10-17T03:43:31;8;8;
31330;PMS5003;34067;39.548;-76.088;2022-10-17T03:45:59;8;7;
31330;PMS5003;34067;39.548;-76.088;2022-10-17T03:48:28;10;7;
31330;PMS5003;34067;39.548;-76.088;2022-10-17T03:50:57;6;6;
31330;PMS5003;34067;39.548;-76.088;2022-10-17T03:53:26;8;7;
31330;PMS5003;34067;39.548;-76.088;2022-10-17T03:55:54;6;6;
31330;PMS5003;34067;39.548;-76.088;2022-10-17T03:58:22;8;8;
31330;PMS5003;34067;39.548;-76.088;2022-10-17T04:00:49;9;9;
31330;PMS5003;34067;39.548;-76.088;2022-10-17T04:03:17;6;6;
31330;PMS5003;34067;39.548;-76.088;2022-10-17T04:05:45;8;7;
31330;PMS5003;34067;39.548;-76.088;2022-10-17T04:08:13;9;7;
31330;PMS5003;34067;39.548;-76.088;2022-10-17T04:10:42;6;6;
31330;PMS5003;34067;39.548;-76.088;2022-10-17T04:13:10;7;7;
31330;PMS5003;34067;39.548;-76.088;2022-10-17T04:15:39;7;7;
31330;PMS5003;34067;39.548;-76.088;2022-10-17T04:18:06;8;7;
31330;PMS5003;34067;39.548;-76.088;2022-10-17T04:20:35;8;8;
31330;PMS5003;34067;39.548;-76.088;2022-10-17T04:23:03;8;8;
31330;PMS5003;34067;39.548;-76.088;2022-10-17T04:25:32;6;6;
31330;PMS5003;34067;39.548;-76.088;2022-10-17T04:28:00;6;5;
31330;PMS5003;34067;39.548;-76.088;2022-10-17T04:30:28;7;7;
31330;PMS5003;34067;39.548;-76.088;2022-10-17T04:32:56;8;7;
31330;PMS5003;34067;39.548;-76.088;2022-10-17T04:35:24;6;5;
31330;PMS5003;34067;39.548;-76.088;2022-10-17T04:37:52;9;9;
31330;PMS5003;34067;39.548;-76.088;2022-10-17T04:40:20;8;7;
31330;PMS5003;34067;39.548;-76.088;2022-10-17T04:42:48;8;8;
31330;PMS5003;34067;39.548;-76.088;2022-10-17T04:45:16;9;9;
31330;PMS5003;34067;39.548;-76.088;2022-10-17T04:47:44;8;8;
31330;PMS5003;34067;39.548;-76.088;2022-10-17T04:50:12;11;9;
31330;PMS5003;34067;39.548;-76.088;2022-10-17T04:52:40;9;8;
31330;PMS5003;34067;39.548;-76.088;2022-10-17T04:55:08;10;10;
31330;PMS5003;34067;39.548;-76.088;2022-10-17T04:57:36;8;8;
31330;PMS5003;34067;39.548;-76.088;2022-10-17T05:03:10;8;7;
31330;PMS5003;34067;39.548;-76.088;2022-10-17T05:05:38;10;10;
31330;PMS5003;34067;39.548;-76.088;2022-10-17T05:08:06;10;9;
31330;PMS5003;34067;39.548;-76.088;2022-10-17T05:10:36;8;8;
31330;PMS5003;34067;39.548;-76.088;2022-10-17T05:13:05;7;7;
31330;PMS5003;34067;39.548;-76.088;2022-10-17T05:15:33;6;5;
31330;PMS5003;34067;39.548;-76.088;2022-10-17T05:18:02;8;8;
31330;PMS5003;34067;39.548;-76.088;2022-10-17T05:20:30;8;8;
31330;PMS5003;34067;39.548;-76.088;2022-10-17T05:22:58;8;7;
31330;PMS5003;34067;39.548;-76.088;2022-10-17T05:25:26;7;7;
31330;PMS5003;34067;39.548;-76.088;2022-10-17T05:27:55;9;7;
31330;PMS5003;34067;39.548;-76.088;2022-10-17T05:30:23;9;8;
31330;PMS5003;34067;39.548;-76.088;2022-10-17T05:32:51;8;8;
31330;PMS5003;34067;39.548;-76.088;2022-10-17T05:35:20;9;9;
31330;PMS5003;34067;39.548;-76.088;2022-10-17T05:37:48;8;8;
31330;PMS5003;34067;39.548;-76.088;2022-10-17T05:40:16;8;7;
31330;PMS5003;34067;39.548;-76.088;2022-10-17T05:42:45;8;8;
31330;PMS5003;34067;39.548;-76.088;2022-10-17T05:45:14;9;9;
31330;PMS5003;34067;39.548;-76.088;2022-10-17T05:47:42;7;6;
31330;PMS5003;34067;39.548;-76.088;2022-10-17T05:50:10;7;7;
31330;PMS5003;34067;39.548;-76.088;2022-10-17T05:52:38;9;8;
31330;PMS5003;34067;39.548;-76.088;2022-10-17T05:55:07;5;5;
31330;PMS5003;34067;39.548;-76.088;2022-10-17T05:57:35;9;8;
31330;PMS5003;34067;39.548;-76.088;2022-10-17T06:00:04;6;6;
31330;PMS5003;34067;39.548;-76.088;2022-10-17T06:02:32;7;7;
31330;PMS5003;34067;39.548;-76.088;2022-10-17T06:05:00;6;5;
31330;PMS5003;34067;39.548;-76.088;2022-10-17T06:07:28;11;9;
31330;PMS5003;34067;39.548;-76.088;2022-10-17T06:09:56;6;6;
31330;PMS5003;34067;39.548;-76.088;2022-10-17T06:12:24;8;7;
31330;PMS5003;34067;39.548;-76.088;2022-10-17T06:14:52;6;6;
31330;PMS5003;34067;39.548;-76.088;2022-10-17T06:17:20;7;6;
31330;PMS5003;34067;39.548;-76.088;2022-10-17T06:19:48;7;7;
31330;PMS5003;34067;39.548;-76.088;2022-10-17T06:22:16;5;5;
31330;PMS5003;34067;39.548;-76.088;2022-10-17T06:24:44;8;8;
31330;PMS5003;34067;39.548;-76.088;2022-10-17T06:27:12;5;5;
31330;PMS5003;34067;39.548;-76.088;2022-10-17T06:29:40;8;8;
31330;PMS5003;34067;39.548;-76.088;2022-10-17T06:32:08;8;7;
31330;PMS5003;34067;39.548;-76.088;2022-10-17T06:34:36;8;8;
31330;PMS5003;34067;39.548;-76.088;2022-10-17T06:37:04;7;7;
31330;PMS5003;34067;39.548;-76.088;2022-10-17T06:39:33;5;5;
31330;PMS5003;34067;39.548;-76.088;2022-10-17T06:42:02;7;7;
31330;PMS5003;34067;39.548;-76.088;2022-10-17T06:44:30;7;7;
31330;PMS5003;34067;39.548;-76.088;2022-10-17T06:46:59;7;7;
31330;PMS5003;34067;39.548;-76.088;2022-10-17T06:49:28;7;6;
31330;PMS5003;34067;39.548;-76.088;2022-10-17T06:51:55;7;7;
31330;PMS5003;34067;39.548;-76.088;2022-10-17T06:54:23;7;7;
31330;PMS5003;34067;39.548;-76.088;2022-10-17T06:56:51;8;7;
31330;PMS5003;34067;39.548;-76.088;2022-10-17T06:59:20;9;8;
31330;PMS5003;34067;39.548;-76.088;2022-10-17T07:01:48;7;7;
31330;PMS5003;34067;39.548;-76.088;2022-10-17T07:04:16;6;6;
31330;PMS5003;34067;39.548;-76.088;2022-10-17T07:06:44;6;6;
31330;PMS5003;34067;39.548;-76.088;2022-10-17T07:09:12;8;7;
31330;PMS5003;34067;39.548;-76.088;2022-10-17T07:11:40;7;7;
31330;PMS5003;34067;39.548;-76.088;2022-10-17T07:14:08;7;6;
31330;PMS5003;34067;39.548;-76.088;2022-10-17T07:16:36;6;6;
31330;PMS5003;34067;39.548;-76.088;2022-10-17T07:19:04;7;6;
31330;PMS5003;34067;39.548;-76.088;2022-10-17T07:21:33;7;7;
31330;PMS5003;34067;39.548;-76.088;2022-10-17T07:24:00;7;6;
31330;PMS5003;34067;39.548;-76.088;2022-10-17T07:26:29;5;4;
31330;PMS5003;34067;39.548;-76.088;2022-10-17T07:28:56;7;7;
31330;PMS5003;34067;39.548;-76.088;2022-10-17T07:31:24;8;8;
31330;PMS5003;34067;39.548;-76.088;2022-10-17T07:33:52;7;6;
31330;PMS5003;34067;39.548;-76.088;2022-10-17T07:36:20;6;6;
31330;PMS5003;34067;39.548;-76.088;2022-10-17T07:38:48;7;7;
31330;PMS5003;34067;39.548;-76.088;2022-10-17T07:41:16;6;6;
31330;PMS5003;34067;39.548;-76.088;2022-10-17T07:43:44;7;7;
31330;PMS5003;34067;39.548;-76.088;2022-10-17T07:46:12;6;6;
31330;PMS5003;34067;39.548;-76.088;2022-10-17T07:48:40;9;8;
31330;PMS5003;34067;39.548;-76.088;2022-10-17T07:51:09;6;6;
31330;PMS5003;34067;39.548;-76.088;2022-10-17T07:53:38;7;6;
31330;PMS5003;34067;39.548;-76.088;2022-10-17T07:56:06;6;5;
31330;PMS5003;34067;39.548;-76.088;2022-10-17T07:58:35;7;7;
31330;PMS5003;34067;39.548;-76.088;2022-10-17T08:01:05;10;8;
31330;PMS5003;34067;39.548;-76.088;2022-10-17T08:03:34;7;7;
31330;PMS5003;34067;39.548;-76.088;2022-10-17T08:06:03;9;9;
31330;PMS5003;34067;39.548;-76.088;2022-10-17T08:08:30;9;9;
31330;PMS5003;34067;39.548;-76.088;2022-10-17T08:11:01;11;11;
31330;PMS5003;34067;39.548;-76.088;2022-10-17T08:13:30;21;21;
31330;PMS5003;34067;39.548;-76.088;2022-10-17T08:15:59;12;12;
31330;PMS5003;34067;39.548;-76.088;2022-10-17T08:18:27;26;26;
31330;PMS5003;34067;39.548;-76.088;2022-10-17T08:20:58;10;10;
31330;PMS5003;34067;39.548;-76.088;2022-10-17T08:23:25;25;25;
31330;PMS5003;34067;39.548;-76.088;2022-10-17T08:25:54;26;26;
31330;PMS5003;34067;39.548;-76.088;2022-10-17T08:28:25;25;25;
31330;PMS5003;34067;39.548;-76.088;2022-10-17T08:31:01;26;26;
31330;PMS5003;34067;39.548;-76.088;2022-10-17T08:33:29;31;31;
31330;PMS5003;34067;39.548;-76.088;2022-10-17T08:35:58;37;37;
31330;PMS5003;34067;39.548;-76.088;2022-10-17T08:38:27;43;43;
31330;PMS5003;34067;39.548;-76.088;2022-10-17T08:40:56;41;41;
31330;PMS5003;34067;39.548;-76.088;2022-10-17T08:43:32;37;37;
31330;PMS5003;34067;39.548;-76.088;2022-10-17T08:46:11;12;12;
31330;PMS5003;34067;39.548;-76.088;2022-10-17T08:48:40;32;32;
31330;PMS5003;34067;39.548;-76.088;2022-10-17T08:51:11;7;7;
31330;PMS5003;34067;39.548;-76.088;2022-10-17T08:53:44;6;5;
31330;PMS5003;34067;39.548;-76.088;2022-10-17T08:56:19;6;5;
31330;PMS5003;34067;39.548;-76.088;2022-10-17T08:58:49;6;6;
31330;PMS5003;34067;39.548;-76.088;2022-10-17T09:01:23;6;6;
31330;PMS5003;34067;39.548;-76.088;2022-10-17T09:04:08;5;5;
31330;PMS5003;34067;39.548;-76.088;2022-10-17T09:07:00;7;5;
31330;PMS5003;34067;39.548;-76.088;2022-10-17T09:09:37;7;7;
31330;PMS5003;34067;39.548;-76.088;2022-10-17T09:12:15;5;5;
31330;PMS5003;34067;39.548;-76.088;2022-10-17T09:14:58;6;5;
31330;PMS5003;34067;39.548;-76.088;2022-10-17T09:17:41;5;5;
31330;PMS5003;34067;39.548;-76.088;2022-10-17T09:20:18;8;7;
31330;PMS5003;34067;39.548;-76.088;2022-10-17T09:22:50;8;7;
31330;PMS5003;34067;39.548;-76.088;2022-10-17T09:25:23;6;6;
31330;PMS5003;34067;39.548;-76.088;2022-10-17T09:27:53;4;4;
31330;PMS5003;34067;39.548;-76.088;2022-10-17T09:30:34;6;5;
31330;PMS5003;34067;39.548;-76.088;2022-10-17T09:33:09;6;5;
31330;PMS5003;34067;39.548;-76.088;2022-10-17T09:35:37;5;5;
31330;PMS5003;34067;39.548;-76.088;2022-10-17T09:38:10;6;6;
31330;PMS5003;34067;39.548;-76.088;2022-10-17T09:40:43;5;5;
31330;PMS5003;34067;39.548;-76.088;2022-10-17T09:43:15;6;5;
31330;PMS5003;34067;39.548;-76.088;2022-10-17T09:45:48;5;5;
31330;PMS5003;34067;39.548;-76.088;2022-10-17T09:48:26;6;6;
31330;PMS5003;34067;39.548;-76.088;2022-10-17T09:51:01;8;6;
31330;PMS5003;34067;39.548;-76.088;2022-10-17T09:53:32;4;4;
31330;PMS5003;34067;39.548;-76.088;2022-10-17T09:56:04;5;5;
31330;PMS5003;34067;39.548;-76.088;2022-10-17T09:58:39;6;6;
31330;PMS5003;34067;39.548;-76.088;2022-10-17T10:01:16;5;5;
31330;PMS5003;34067;39.548;-76.088;2022-10-17T10:03:46;6;6;
31330;PMS5003;34067;39.548;-76.088;2022-10-17T10:06:15;4;4;
31330;PMS5003;34067;39.548;-76.088;2022-10-17T10:08:48;4;4;
31330;PMS5003;34067;39.548;-76.088;2022-10-17T10:11:19;6;6;
31330;PMS5003;34067;39.548;-76.088;2022-10-17T10:13:51;6;5;
31330;PMS5003;34067;39.548;-76.088;2022-10-17T10:16:21;6;6;
31330;PMS5003;34067;39.548;-76.088;2022-10-17T10:18:56;23;21;
31330;PMS5003;34067;39.548;-76.088;2022-10-17T10:21:25;7;6;
31330;PMS5003;34067;39.548;-76.088;2022-10-17T10:24:11;5;5;
31330;PMS5003;34067;39.548;-76.088;2022-10-17T10:26:41;7;6;
31330;PMS5003;34067;39.548;-76.088;2022-10-17T10:29:26;6;6;
31330;PMS5003;34067;39.548;-76.088;2022-10-17T10:31:58;5;5;
31330;PMS5003;34067;39.548;-76.088;2022-10-17T10:34:34;5;5;
31330;PMS5003;34067;39.548;-76.088;2022-10-17T10:37:04;6;5;
31330;PMS5003;34067;39.548;-76.088;2022-10-17T10:39:46;4;4;
31330;PMS5003;34067;39.548;-76.088;2022-10-17T10:42:18;5;4;
31330;PMS5003;34067;39.548;-76.088;2022-10-17T10:44:48;6;6;
31330;PMS5003;34067;39.548;-76.088;2022-10-17T10:47:19;5;5;
31330;PMS5003;34067;39.548;-76.088;2022-10-17T10:49:50;5;5;
31330;PMS5003;34067;39.548;-76.088;2022-10-17T10:52:32;5;5;
31330;PMS5003;34067;39.548;-76.088;2022-10-17T10:55:13;5;4;
31330;PMS5003;34067;39.548;-76.088;2022-10-17T10:57:49;7;7;
31330;PMS5003;34067;39.548;-76.088;2022-10-17T11:00:22;5;5;
31330;PMS5003;34067;39.548;-76.088;2022-10-17T11:02:55;5;4;
31330;PMS5003;34067;39.548;-76.088;2022-10-17T11:05:35;7;6;
31330;PMS5003;34067;39.548;-76.088;2022-10-17T11:08:10;5;5;
31330;PMS5003;34067;39.548;-76.088;2022-10-17T11:10:50;5;5;
31330;PMS5003;34067;39.548;-76.088;2022-10-17T11:13:36;6;6;
31330;PMS5003;34067;39.548;-76.088;2022-10-17T11:16:15;6;6;
31330;PMS5003;34067;39.548;-76.088;2022-10-17T11:18:51;4;4;
31330;PMS5003;34067;39.548;-76.088;2022-10-17T11:21:26;8;6;
31330;PMS5003;34067;39.548;-76.088;2022-10-17T11:24:05;5;4;
31330;PMS5003;34067;39.548;-76.088;2022-10-17T11:26:44;6;6;
31330;PMS5003;34067;39.548;-76.088;2022-10-17T11:29:19;5;5;
31330;PMS5003;34067;39.548;-76.088;2022-10-17T11:31:51;6;6;
31330;PMS5003;34067;39.548;-76.088;2022-10-17T11:34:24;6;5;
31330;PMS5003;34067;39.548;-76.088;2022-10-17T11:36:57;7;7;
31330;PMS5003;34067;39.548;-76.088;2022-10-17T11:39:32;5;5;
31330;PMS5003;34067;39.548;-76.088;2022-10-17T11:42:10;4;4;
31330;PMS5003;34067;39.548;-76.088;2022-10-17T11:44:43;6;6;
31330;PMS5003;34067;39.548;-76.088;2022-10-17T11:47:13;7;6;
31330;PMS5003;34067;39.548;-76.088;2022-10-17T11:49:51;7;6;
31330;PMS5003;34067;39.548;-76.088;2022-10-17T11:52:27;6;6;
31330;PMS5003;34067;39.548;-76.088;2022-10-17T11:55:02;7;7;
31330;PMS5003;34067;39.548;-76.088;2022-10-17T11:57:39;8;7;
31330;PMS5003;34067;39.548;-76.088;2022-10-17T12:00:19;6;6;
31330;PMS5003;34067;39.548;-76.088;2022-10-17T12:03:01;7;7;
31330;PMS5003;34067;39.548;-76.088;2022-10-17T12:05:40;6;5;
31330;PMS5003;34067;39.548;-76.088;2022-10-17T12:08:18;7;6;
31330;PMS5003;34067;39.548;-76.088;2022-10-17T12:10:54;6;6;
31330;PMS5003;34067;39.548;-76.088;2022-10-17T12:13:45;6;6;
31330;PMS5003;34067;39.548;-76.088;2022-10-17T12:16:35;7;7;
31330;PMS5003;34067;39.548;-76.088;2022-10-17T12:19:25;6;6;
31330;PMS5003;34067;39.548;-76.088;2022-10-17T12:21:55;5;5;
31330;PMS5003;34067;39.548;-76.088;2022-10-17T12:24:30;6;6;
31330;PMS5003;34067;39.548;-76.088;2022-10-17T12:27:37;5;5;
31330;PMS5003;34067;39.548;-76.088;2022-10-17T12:30:16;6;6;
31330;PMS5003;34067;39.548;-76.088;2022-10-17T12:32:56;6;6;
31330;PMS5003;34067;39.548;-76.088;2022-10-17T12:35:27;7;6;
31330;PMS5003;34067;39.548;-76.088;2022-10-17T12:38:00;5;5;
31330;PMS5003;34067;39.548;-76.088;2022-10-17T12:41:01;8;7;
31330;PMS5003;34067;39.548;-76.088;2022-10-17T12:43:35;8;8;
31330;PMS5003;34067;39.548;-76.088;2022-10-17T12:43:50;8;7;
31330;PMS5003;34067;39.548;-76.088;2022-10-17T12:46:53;7;7;
31330;PMS5003;34067;39.548;-76.088;2022-10-17T12:49:35;6;6;
31330;PMS5003;34067;39.548;-76.088;2022-10-17T12:52:14;8;8;
31330;PMS5003;34067;39.548;-76.088;2022-10-17T12:54:45;8;8;
31330;PMS5003;34067;39.548;-76.088;2022-10-17T12:57:18;9;8;
31330;PMS5003;34067;39.548;-76.088;2022-10-17T12:59:49;6;5;
31330;PMS5003;34067;39.548;-76.088;2022-10-17T13:02:19;7;7;
31330;PMS5003;34067;39.548;-76.088;2022-10-17T13:04:52;7;6;
31330;PMS5003;34067;39.548;-76.088;2022-10-17T13:07:34;5;5;
31330;PMS5003;34067;39.548;-76.088;2022-10-17T13:10:07;6;6;
31330;PMS5003;34067;39.548;-76.088;2022-10-17T13:12:46;7;7;
31330;PMS5003;34067;39.548;-76.088;2022-10-17T13:15:16;8;7;
31330;PMS5003;34067;39.548;-76.088;2022-10-17T13:17:54;6;6;
31330;PMS5003;34067;39.548;-76.088;2022-10-17T13:20:24;7;7;
31330;PMS5003;34067;39.548;-76.088;2022-10-17T13:22:53;8;8;
31330;PMS5003;34067;39.548;-76.088;2022-10-17T13:25:22;7;6;
31330;PMS5003;34067;39.548;-76.088;2022-10-17T13:28:03;9;8;
31330;PMS5003;34067;39.548;-76.088;2022-10-17T13:30:37;8;8;
31330;PMS5003;34067;39.548;-76.088;2022-10-17T13:33:17;8;8;
31330;PMS5003;34067;39.548;-76.088;2022-10-17T13:35:54;8;8;
31330;PMS5003;34067;39.548;-76.088;2022-10-17T13:38:31;8;8;
31330;PMS5003;34067;39.548;-76.088;2022-10-17T13:41:01;8;8;
31330;PMS5003;34067;39.548;-76.088;2022-10-17T13:43:30;8;7;
31330;PMS5003;34067;39.548;-76.088;2022-10-17T13:45:58;9;9;
31330;PMS5003;34067;39.548;-76.088;2022-10-17T13:48:27;7;7;
31330;PMS5003;34067;39.548;-76.088;2022-10-17T13:50:59;8;7;
31330;PMS5003;34067;39.548;-76.088;2022-10-17T13:53:31;10;9;
31330;PMS5003;34067;39.548;-76.088;2022-10-17T13:56:00;10;10;
31330;PMS5003;34067;39.548;-76.088;2022-10-17T13:58:31;8;8;
31330;PMS5003;34067;39.548;-76.088;2022-10-17T14:01:06;9;9;
31330;PMS5003;34067;39.548;-76.088;2022-10-17T14:03:34;9;8;
31330;PMS5003;34067;39.548;-76.088;2022-10-17T14:06:05;8;8;
31330;PMS5003;34067;39.548;-76.088;2022-10-17T14:08:46;9;8;
31330;PMS5003;34067;39.548;-76.088;2022-10-17T14:11:22;8;8;
31330;PMS5003;34067;39.548;-76.088;2022-10-17T14:13:55;16;16;
31330;PMS5003;34067;39.548;-76.088;2022-10-17T14:16:25;9;9;
31330;PMS5003;34067;39.548;-76.088;2022-10-17T14:18:59;13;12;
31330;PMS5003;34067;39.548;-76.088;2022-10-17T14:21:27;12;11;
31330;PMS5003;34067;39.548;-76.088;2022-10-17T14:24:13;13;11;
31330;PMS5003;34067;39.548;-76.088;2022-10-17T14:26:53;10;10;
31330;PMS5003;34067;39.548;-76.088;2022-10-17T14:29:23;10;10;
31330;PMS5003;34067;39.548;-76.088;2022-10-17T14:31:57;9;8;
31330;PMS5003;34067;39.548;-76.088;2022-10-17T14:34:29;12;10;
31330;PMS5003;34067;39.548;-76.088;2022-10-17T14:37:00;10;9;
31330;PMS5003;34067;39.548;-76.088;2022-10-17T14:39:34;9;9;
31330;PMS5003;34067;39.548;-76.088;2022-10-17T14:42:02;9;9;
31330;PMS5003;34067;39.548;-76.088;2022-10-17T14:44:30;8;7;
31330;PMS5003;34067;39.548;-76.088;2022-10-17T14:47:01;6;6;
31330;PMS5003;34067;39.548;-76.088;2022-10-17T14:49:33;11;10;
31330;PMS5003;34067;39.548;-76.088;2022-10-17T14:52:11;8;8;
31330;PMS5003;34067;39.548;-76.088;2022-10-17T14:54:51;8;7;
31330;PMS5003;34067;39.548;-76.088;2022-10-17T14:57:22;8;8;
31330;PMS5003;34067;39.548;-76.088;2022-10-17T14:59:51;9;9;
31330;PMS5003;34067;39.548;-76.088;2022-10-17T15:02:20;8;8;
31330;PMS5003;34067;39.548;-76.088;2022-10-17T15:04:49;8;8;
31330;PMS5003;34067;39.548;-76.088;2022-10-17T15:07:17;9;8;
31330;PMS5003;34067;39.548;-76.088;2022-10-17T15:09:46;10;9;
31330;PMS5003;34067;39.548;-76.088;2022-10-17T15:12:16;8;8;
31330;PMS5003;34067;39.548;-76.088;2022-10-17T15:14:45;9;9;
31330;PMS5003;34067;39.548;-76.088;2022-10-17T15:17:14;10;10;
31330;PMS5003;34067;39.548;-76.088;2022-10-17T15:19:44;13;12;
31330;PMS5003;34067;39.548;-76.088;2022-10-17T15:22:13;13;12;
31330;PMS5003;34067;39.548;-76.088;2022-10-17T15:24:41;9;9;
31330;PMS5003;34067;39.548;-76.088;2022-10-17T15:27:13;7;7;
31330;PMS5003;34067;39.548;-76.088;2022-10-17T15:29:42;10;10;
31330;PMS5003;34067;39.548;-76.088;2022-10-17T15:32:10;8;8;
31330;PMS5003;34067;39.548;-76.088;2022-10-17T15:34:39;8;7;
31330;PMS5003;34067;39.548;-76.088;2022-10-17T15:37:13;9;9;
31330;PMS5003;34067;39.548;-76.088;2022-10-17T15:39:44;10;10;
31330;PMS5003;34067;39.548;-76.088;2022-10-17T15:42:15;10;9;
31330;PMS5003;34067;39.548;-76.088;2022-10-17T15:44:43;9;9;
31330;PMS5003;34067;39.548;-76.088;2022-10-17T15:47:14;10;9;
31330;PMS5003;34067;39.548;-76.088;2022-10-17T15:49:51;11;10;
31330;PMS5003;34067;39.548;-76.088;2022-10-17T15:52:19;11;11;
31330;PMS5003;34067;39.548;-76.088;2022-10-17T15:54:47;8;8;
31330;PMS5003;34067;39.548;-76.088;2022-10-17T15:57:18;9;9;
31330;PMS5003;34067;39.548;-76.088;2022-10-17T15:59:48;10;9;
31330;PMS5003;34067;39.548;-76.088;2022-10-17T16:02:17;7;7;
31330;PMS5003;34067;39.548;-76.088;2022-10-17T16:04:48;8;7;
31330;PMS5003;34067;39.548;-76.088;2022-10-17T16:07:16;7;7;
31330;PMS5003;34067;39.548;-76.088;2022-10-17T16:09:45;9;8;
31330;PMS5003;34067;39.548;-76.088;2022-10-17T16:12:14;9;9;
31330;PMS5003;34067;39.548;-76.088;2022-10-17T16:14:46;9;9;
31330;PMS5003;34067;39.548;-76.088;2022-10-17T16:17:14;10;9;
31330;PMS5003;34067;39.548;-76.088;2022-10-17T16:19:43;9;9;
31330;PMS5003;34067;39.548;-76.088;2022-10-17T16:22:17;9;8;
31330;PMS5003;34067;39.548;-76.088;2022-10-17T16:24:51;11;10;
31330;PMS5003;34067;39.548;-76.088;2022-10-17T16:27:19;10;10;
31330;PMS5003;34067;39.548;-76.088;2022-10-17T16:29:47;11;10;
31330;PMS5003;34067;39.548;-76.088;2022-10-17T16:32:15;9;9;
31330;PMS5003;34067;39.548;-76.088;2022-10-17T16:34:43;7;7;
31330;PMS5003;34067;39.548;-76.088;2022-10-17T16:37:11;9;8;
31330;PMS5003;34067;39.548;-76.088;2022-10-17T16:39:39;11;11;
31330;PMS5003;34067;39.548;-76.088;2022-10-17T16:42:07;10;8;